ENFB/FBU METAR and TAF weather

Enter ICAO airport designator
Station Type Date Time Source
ENFB METAR 2019/04/21 21:50 UTC NOAA

ENFB 212150Z AUTO 18034KT 9000NDV BKN130/// 10/08 Q1011 W///S4


Station Type Date Time Source
ENFB Decoded METAR 2019/04/21 21:50 UTC NOAA

Oslo / Fornebu, Norway (ENFB) 59-54N 010-38E 17M
Apr 21, 2019 - 05:50 PM EDT / 2019.04.21 2150 UTC
Wind: from the S (180 degrees) at 39 MPH (34 KT):0
Sky conditions: mostly cloudy
Temperature: 50 F (10 C)
Dew Point: 46 F (8 C)
Relative Humidity: 87%
Pressure (altimeter): 29.85 in. Hg (1011 hPa)
ob: ENFB 212150Z AUTO 18034KT 9000NDV BKN130/// 10/08 Q1011 W///S4
cycle: 22

Station Type Date Time Source
ENFB TAF UTC NOAA

Error!

Example: see airport list